Messwerte Rio Negro

Temperatur

Temperatur
°C
1624287600 10.00 10.00
1624291200 11.00 11.00 21
1624294800 12.00 12.00 22
1624298400 13.00 13.00 23
1624302000 14.00 14.00 23
1624305600 15.00 15.00 23
1624309200 16.00 16.00 23
1624312800 17.00 17.00
1624316400 18.00 18.00
1624320000 19.00 19.00 17
1624323600 20.00 20.00 18
1624327200 21.00 21.00 17
1624330800 22.00 22.00 16
1624334400 23.00 23.00 15
1624338000 0.00 0.00 15
1624341600 1.00 1.00
1624345200 2.00 2.00 14
1624348800 3.00 3.00
1624352400 4.00 4.00
1624356000 5.00 5.00
1624359600 6.00 6.00 14
1624363200 7.00 7.00 14
1624366800 8.00 8.00 16
1624370400 9.00 9.00 16

Aktuellste Messwerte

Wettercharakter
Wetter: wechselnd bewölkt
Temperatur
16 °C
Feuchtigkeit
94 %
Wind
5 km/hWindrichtung: Nordost
Luftdruck
1028 hPa
Messzeit: 22. Juni 2021, 8.00Datenquelle: METAR

Weitere Messstationen in der Nähe

Messstation Temperatur Entfernung
Pereira 20 °C 149 km
Bogotá 14 °C 213 km
Bucaramanga 19 °C 269 km
Cali 22 °C 305 km
Cartagena de Indias 27 °C 480 km

Wind

Windrichtung Böen Mittelwind
° km/h km/h
1624287600 10.00 9.00 - 10.00
1624291200 11.00 10.00 - 11.00 150° 15
1624294800 12.00 11.00 - 12.00 120° 20
1624298400 13.00 12.00 - 13.00 110° 20
1624302000 14.00 13.00 - 14.00 100° 20
1624305600 15.00 14.00 - 15.00 150° 20
1624309200 16.00 15.00 - 16.00 100° 15
1624312800 17.00 16.00 - 17.00
1624316400 18.00 17.00 - 18.00
1624320000 19.00 18.00 - 19.00 100° 10
1624323600 20.00 19.00 - 20.00 5
1624327200 21.00 20.00 - 21.00 5
1624330800 22.00 21.00 - 22.00 5
1624334400 23.00 22.00 - 23.00 5
1624338000 0.00 23.00 - 0.00 5
1624341600 1.00 0.00 - 1.00
1624345200 2.00 1.00 - 2.00 5
1624348800 3.00 2.00 - 3.00
1624352400 4.00 3.00 - 4.00
1624356000 5.00 4.00 - 5.00
1624359600 6.00 5.00 - 6.00 5
1624363200 7.00 6.00 - 7.00 5
1624366800 8.00 7.00 - 8.00 30° 5
1624370400 9.00 8.00 - 9.00 20° 5

Ihre Wetterstation

Fehlt Ihre Wetterstation auf unserem Portal?

Schreiben Sie an network@meteonews.ch

Klima

Wann ist es am wärmsten? Wann regnet es am wenigsten? Unsere Klimadaten geben Auskunft.